createdAt,value
2019-05-02T00:04:43.013Z,3.60
2019-05-02T00:10:00.630Z,4.07
2019-05-02T00:17:56.774Z,4.17
2019-05-02T00:20:25.889Z,4.07
2019-05-02T00:22:53.963Z,4.27
2019-05-02T00:25:22.510Z,4.00
2019-05-02T00:27:50.793Z,4.40
2019-05-02T00:32:58.187Z,4.20
2019-05-02T00:35:24.342Z,4.53
2019-05-02T00:37:52.611Z,4.60
2019-05-02T00:40:25.619Z,4.40
2019-05-02T00:42:53.188Z,4.40
2019-05-02T00:45:23.977Z,4.30
2019-05-02T00:53:22.265Z,4.03
2019-05-02T00:55:50.585Z,4.10
2019-05-02T00:58:18.908Z,4.13
2019-05-02T01:01:06.145Z,3.63
2019-05-02T01:06:23.691Z,3.87
2019-05-02T01:08:52.011Z,4.47
2019-05-02T01:11:20.341Z,4.27
2019-05-02T01:13:50.326Z,4.43
2019-05-02T01:16:19.128Z,4.43
2019-05-02T01:18:48.520Z,4.00
2019-05-02T01:21:16.861Z,4.03
2019-05-02T01:23:45.149Z,4.37
2019-05-02T01:26:13.445Z,3.57
2019-05-02T01:29:00.610Z,4.43
2019-05-02T01:31:49.963Z,4.30
2019-05-02T01:34:36.621Z,4.77
2019-05-02T01:37:23.804Z,3.67
2019-05-02T01:39:52.093Z,4.63
2019-05-02T01:42:20.546Z,5.10
2019-05-02T01:44:48.870Z,4.17
2019-05-02T01:47:17.178Z,4.70
2019-05-02T01:49:45.469Z,4.50
2019-05-02T01:52:13.761Z,4.73
2019-05-02T01:57:15.622Z,4.33
2019-05-02T01:59:43.917Z,4.10
2019-05-02T02:02:12.193Z,4.90
2019-05-02T02:04:40.484Z,4.53
2019-05-02T02:07:08.889Z,4.53
2019-05-02T02:09:38.822Z,4.70
2019-05-02T02:12:09.706Z,4.57
2019-05-02T02:14:37.149Z,5.40
2019-05-02T02:17:05.441Z,5.27
2019-05-02T02:22:33.739Z,3.60
2019-05-02T02:25:22.157Z,3.97
2019-05-02T02:27:50.453Z,3.07
2019-05-02T02:30:24.490Z,2.70
2019-05-02T02:32:48.842Z,3.30
2019-05-02T02:35:17.158Z,2.90
2019-05-02T02:37:52.008Z,3.40
2019-05-02T02:40:15.518Z,3.37
2019-05-02T02:48:18.457Z,3.63
2019-05-02T02:50:46.759Z,3.00
2019-05-02T02:58:47.985Z,3.00
2019-05-02T03:01:27.238Z,3.43
2019-05-02T03:03:46.602Z,3.10
2019-05-02T03:06:14.899Z,3.47
2019-05-02T03:08:46.655Z,2.83
2019-05-02T03:14:09.609Z,3.43
2019-05-02T03:16:46.157Z,3.30
2019-05-02T03:22:01.475Z,4.03
2019-05-02T03:24:30.264Z,3.23
2019-05-02T03:27:17.431Z,3.60
2019-05-02T03:29:45.722Z,3.50
2019-05-02T03:34:58.974Z,3.60
2019-05-02T03:40:21.087Z,3.53
2019-05-02T03:45:32.346Z,3.20
2019-05-02T03:50:55.202Z,4.27
2019-05-02T03:53:25.220Z,3.50
2019-05-02T03:55:53.637Z,4.33
2019-05-02T03:58:22.044Z,3.87
2019-05-02T04:01:00.377Z,4.07
2019-05-02T04:03:40.991Z,3.57
2019-05-02T04:06:14.049Z,4.23
2019-05-02T04:14:14.638Z,4.37
2019-05-02T04:19:41.399Z,4.40
2019-05-02T04:22:11.985Z,4.40
2019-05-02T04:24:39.784Z,3.97
2019-05-02T04:27:08.172Z,4.30
2019-05-02T04:32:31.277Z,5.70
2019-05-02T04:34:59.558Z,4.90
2019-05-02T04:40:19.293Z,3.93
2019-05-02T04:42:53.346Z,4.40
2019-05-02T04:45:26.480Z,4.43
2019-05-02T04:47:54.571Z,3.90
2019-05-02T04:50:23.167Z,4.03
2019-05-02T04:52:53.623Z,4.90
2019-05-02T04:55:26.167Z,4.90
2019-05-02T04:57:50.869Z,4.70
2019-05-02T05:03:15.443Z,4.60
2019-05-02T05:05:41.049Z,4.07
2019-05-02T05:08:09.383Z,4.00
2019-05-02T05:13:26.497Z,3.50
2019-05-02T05:15:57.273Z,3.67
2019-05-02T05:18:27.292Z,3.30
2019-05-02T05:20:54.910Z,3.70
2019-05-02T05:23:42.122Z,3.57
2019-05-02T05:26:10.429Z,4.23
2019-05-02T05:28:40.533Z,3.80
2019-05-02T05:31:09.174Z,4.03
2019-05-02T05:33:37.828Z,3.80
2019-05-02T05:36:08.247Z,3.60
2019-05-02T05:38:40.444Z,3.40
2019-05-02T05:41:11.178Z,3.30
2019-05-02T05:43:38.018Z,3.80
2019-05-02T05:46:10.734Z,4.20
2019-05-02T05:48:40.787Z,3.87
2019-05-02T05:51:11.802Z,3.63
2019-05-02T05:53:37.933Z,3.37
2019-05-02T05:56:07.966Z,3.60
2019-05-02T05:58:39.838Z,3.47
2019-05-02T06:01:09.841Z,3.60
2019-05-02T06:08:58.445Z,3.57
2019-05-02T06:11:26.892Z,4.17
2019-05-02T06:13:55.185Z,3.40
2019-05-02T06:16:23.832Z,3.03
2019-05-02T06:18:52.137Z,4.00
2019-05-02T06:21:20.437Z,3.57
2019-05-02T06:23:48.841Z,3.70
2019-05-02T06:26:17.120Z,3.30
2019-05-02T06:28:45.438Z,3.80
2019-05-02T06:34:02.110Z,3.33
2019-05-02T06:36:32.023Z,3.60
2019-05-02T06:39:00.942Z,3.77
2019-05-02T06:41:29.238Z,3.30
2019-05-02T06:43:57.524Z,3.73
2019-05-02T06:46:27.527Z,3.17
2019-05-02T06:48:55.765Z,3.03
2019-05-02T06:51:24.089Z,3.80
2019-05-02T06:53:52.389Z,4.03
2019-05-02T06:56:20.773Z,3.50
2019-05-02T06:58:49.054Z,3.00
2019-05-02T07:01:21.114Z,3.43
2019-05-02T07:06:56.321Z,2.67
2019-05-02T07:09:10.211Z,3.27
2019-05-02T07:11:41.012Z,3.00
2019-05-02T07:14:13.464Z,3.43
2019-05-02T07:19:38.374Z,3.73
2019-05-02T07:22:06.694Z,3.10
2019-05-02T07:24:34.986Z,2.80
2019-05-02T07:27:03.327Z,3.17
2019-05-02T07:29:31.663Z,3.40
2019-05-02T07:31:59.972Z,3.10
2019-05-02T07:34:28.285Z,3.60
2019-05-02T07:36:56.565Z,3.33
2019-05-02T07:39:24.985Z,3.33
2019-05-02T07:41:53.285Z,3.40
2019-05-02T07:44:21.581Z,3.37
2019-05-02T07:46:52.019Z,3.50
2019-05-02T07:49:20.793Z,4.30
2019-05-02T07:51:52.302Z,3.67
2019-05-02T07:54:24.818Z,3.80
2019-05-02T07:56:53.445Z,3.90
2019-05-02T08:02:07.277Z,3.70
2019-05-02T08:04:35.572Z,3.30
2019-05-02T08:09:58.429Z,3.57
2019-05-02T08:12:26.781Z,3.97
2019-05-02T08:14:55.094Z,3.83
2019-05-02T08:17:23.400Z,3.43
2019-05-02T08:19:51.685Z,3.53
2019-05-02T08:22:19.980Z,3.40
2019-05-02T08:24:48.372Z,3.53
2019-05-02T08:27:36.716Z,3.80
2019-05-02T08:30:06.050Z,3.20
2019-05-02T08:32:34.328Z,3.17
2019-05-02T08:35:02.616Z,4.30
2019-05-02T08:37:35.399Z,2.87
2019-05-02T08:40:05.362Z,3.53
2019-05-02T08:42:32.577Z,2.97
2019-05-02T08:45:03.160Z,4.07
2019-05-02T08:47:31.459Z,3.33
2019-05-02T08:49:59.770Z,3.37
2019-05-02T08:52:28.106Z,3.57
2019-05-02T08:54:56.380Z,3.50
2019-05-02T08:57:24.662Z,3.47
2019-05-02T08:59:55.392Z,3.20
2019-05-02T09:02:25.986Z,3.63
2019-05-02T09:04:58.852Z,3.03
2019-05-02T09:07:22.835Z,3.53
2019-05-02T09:09:51.236Z,2.83
2019-05-02T09:12:42.273Z,3.30
2019-05-02T09:20:52.574Z,2.70
2019-05-02T09:23:18.449Z,3.27
2019-05-02T09:25:46.833Z,2.77
2019-05-02T09:28:17.074Z,3.93
2019-05-02T09:30:46.771Z,3.03
2019-05-02T09:33:15.145Z,2.13
2019-05-02T09:35:43.468Z,2.93
2019-05-02T09:38:12.986Z,2.53
2019-05-02T09:40:42.655Z,2.77
2019-05-02T09:43:12.193Z,3.00
2019-05-02T09:45:43.831Z,2.83
2019-05-02T09:50:52.858Z,2.73
2019-05-02T09:53:25.569Z,2.77
2019-05-02T09:55:55.759Z,2.60
2019-05-02T09:58:23.857Z,2.67
2019-05-02T10:01:01.754Z,2.93
2019-05-02T10:03:31.948Z,2.33
2019-05-02T10:06:00.341Z,2.37
2019-05-02T10:08:28.643Z,2.50
2019-05-02T10:10:57.045Z,2.00
2019-05-02T10:13:25.358Z,1.80
2019-05-02T10:15:53.733Z,1.93
2019-05-02T10:18:28.288Z,2.40
2019-05-02T10:20:52.474Z,2.47
2019-05-02T10:26:12.894Z,2.17
2019-05-02T10:28:41.788Z,1.50
2019-05-02T10:31:12.705Z,2.30
2019-05-02T10:33:42.054Z,2.17
2019-05-02T10:36:19.216Z,2.73
2019-05-02T10:38:42.713Z,2.50
2019-05-02T10:41:12.001Z,2.30
2019-05-02T10:43:42.347Z,2.37
2019-05-02T10:51:35.500Z,2.73
2019-05-02T10:54:04.993Z,2.30
2019-05-02T10:56:33.309Z,2.50
2019-05-02T10:59:02.251Z,2.20
2019-05-02T11:06:46.416Z,2.87
2019-05-02T11:09:16.840Z,2.40
2019-05-02T11:11:46.225Z,2.57
2019-05-02T11:14:33.510Z,2.03
2019-05-02T11:17:22.576Z,2.77
2019-05-02T11:20:09.534Z,2.33
2019-05-02T11:22:38.014Z,2.47
2019-05-02T11:25:06.349Z,2.20
2019-05-02T11:27:34.650Z,2.17
2019-05-02T11:30:03.049Z,2.27
2019-05-02T11:35:18.892Z,2.10
2019-05-02T11:37:47.229Z,2.20
2019-05-02T11:40:15.927Z,2.30
2019-05-02T11:42:44.224Z,2.33
2019-05-02T11:45:12.662Z,2.43
2019-05-02T11:47:42.283Z,2.73
2019-05-02T11:53:09.271Z,2.43
2019-05-02T11:55:35.529Z,3.00
2019-05-02T11:58:08.188Z,2.07
2019-05-02T12:00:33.966Z,2.50
2019-05-02T12:03:21.950Z,2.27
2019-05-02T12:05:52.285Z,2.23
2019-05-02T12:08:22.091Z,2.60
2019-05-02T12:10:51.958Z,2.53
2019-05-02T12:13:20.269Z,2.67
2019-05-02T12:15:48.613Z,2.93
2019-05-02T12:18:16.936Z,2.40
2019-05-02T12:20:45.222Z,2.60
2019-05-02T12:23:13.529Z,2.77
2019-05-02T12:25:42.324Z,2.57
2019-05-02T12:28:12.134Z,2.83
2019-05-02T12:30:42.007Z,2.43
2019-05-02T12:35:52.793Z,2.10
2019-05-02T12:38:22.927Z,1.73
2019-05-02T12:40:52.023Z,1.97
2019-05-02T12:43:22.888Z,1.97
2019-05-02T12:48:38.306Z,2.60
2019-05-02T12:51:06.701Z,2.63
2019-05-02T12:53:35.014Z,2.67
2019-05-02T12:56:03.321Z,2.67
2019-05-02T12:58:32.570Z,2.53
2019-05-02T13:01:02.868Z,2.00
2019-05-02T13:03:51.775Z,2.10
2019-05-02T13:06:21.983Z,2.60
2019-05-02T13:08:52.385Z,2.60
2019-05-02T13:17:11.963Z,2.57
2019-05-02T13:19:48.855Z,2.30
2019-05-02T13:28:01.946Z,2.63
2019-05-02T13:33:44.011Z,2.90
2019-05-02T13:36:32.564Z,2.57
2019-05-02T13:39:01.774Z,2.73
2019-05-02T13:41:32.140Z,2.47
2019-05-02T13:44:02.133Z,3.17
2019-05-02T13:46:32.232Z,2.57
2019-05-02T13:49:02.173Z,2.53
2019-05-02T13:54:13.304Z,2.53
2019-05-02T13:57:00.489Z,2.67
2019-05-02T13:59:28.790Z,2.40
2019-05-02T14:01:57.212Z,2.60
2019-05-02T14:04:44.434Z,2.70
2019-05-02T14:07:17.399Z,2.27
2019-05-02T14:12:46.484Z,2.37
2019-05-02T14:18:09.194Z,2.00
2019-05-02T14:20:37.607Z,2.70
2019-05-02T14:23:06.029Z,2.20
2019-05-02T14:25:34.324Z,2.60
2019-05-02T14:28:03.060Z,2.30
2019-05-02T14:30:39.390Z,2.03
2019-05-02T14:35:40.298Z,2.03
2019-05-02T14:38:09.589Z,2.40
2019-05-02T14:43:48.319Z,2.40
2019-05-02T14:46:18.033Z,2.10
2019-05-02T14:48:47.212Z,2.00
2019-05-02T14:54:23.522Z,2.20
2019-05-02T14:59:44.199Z,2.10
2019-05-02T15:02:32.813Z,2.70
2019-05-02T15:05:02.082Z,2.60
2019-05-02T15:07:31.848Z,2.60
2019-05-02T15:10:20.461Z,2.77
2019-05-02T15:12:51.634Z,2.40
2019-05-02T15:15:18.840Z,2.63
2019-05-02T15:17:47.164Z,2.77
2019-05-02T15:22:56.326Z,2.70
2019-05-02T15:25:24.625Z,3.00
2019-05-02T15:27:58.154Z,2.60
2019-05-02T15:30:24.075Z,2.97
2019-05-02T15:36:07.755Z,2.63
2019-05-02T15:41:23.368Z,3.23
2019-05-02T15:43:52.411Z,3.30
2019-05-02T15:46:42.463Z,3.60
2019-05-02T15:49:12.197Z,2.77
2019-05-02T15:51:43.286Z,3.10
2019-05-02T15:54:12.383Z,2.97
2019-05-02T15:57:01.250Z,2.70
2019-05-02T15:59:48.252Z,2.83
2019-05-02T16:05:02.354Z,2.77
2019-05-02T16:07:28.593Z,2.80
2019-05-02T16:10:01.128Z,3.23
2019-05-02T16:12:27.068Z,3.20
2019-05-02T16:14:56.788Z,3.00
2019-05-02T16:22:49.520Z,3.60
2019-05-02T16:28:25.893Z,3.07
2019-05-02T16:33:43.829Z,3.63
2019-05-02T16:36:12.673Z,4.30
2019-05-02T16:38:42.466Z,18.23
2019-05-02T16:41:12.087Z,9.53
2019-05-02T16:43:41.903Z,5.70
2019-05-02T16:46:11.930Z,4.70
2019-05-02T16:48:42.521Z,5.40
2019-05-02T16:51:27.600Z,11.90
2019-05-02T16:53:40.173Z,7.33
2019-05-02T16:56:08.477Z,4.53
2019-05-02T16:58:37.994Z,6.50
2019-05-02T17:01:06.750Z,12.53
2019-05-02T17:03:35.077Z,22.17
2019-05-02T17:06:03.419Z,16.53
2019-05-02T17:08:57.477Z,8.97
2019-05-02T17:11:39.478Z,8.03
2019-05-02T17:14:11.986Z,7.37
2019-05-02T17:16:37.764Z,4.80
2019-05-02T17:19:06.072Z,4.63
2019-05-02T17:21:52.278Z,4.43
2019-05-02T17:24:04.402Z,4.60
2019-05-02T17:26:32.701Z,3.97
2019-05-02T17:29:02.495Z,3.90
2019-05-02T17:31:32.191Z,4.00
2019-05-02T17:34:02.756Z,4.20
2019-05-02T17:36:32.554Z,4.73
2019-05-02T17:39:06.337Z,4.20
2019-05-02T17:41:31.799Z,4.50
2019-05-02T17:44:00.793Z,11.20
2019-05-02T17:46:29.086Z,5.37
2019-05-02T17:48:57.533Z,5.47
2019-05-02T17:54:05.471Z,5.43
2019-05-02T17:56:33.781Z,5.87
2019-05-02T17:59:02.138Z,5.13
2019-05-02T18:04:12.530Z,7.23
2019-05-02T18:06:38.172Z,6.17
2019-05-02T18:09:31.754Z,6.33
2019-05-02T18:11:57.961Z,6.67
2019-05-02T18:14:26.326Z,6.00
2019-05-02T18:16:55.648Z,6.07
2019-05-02T18:19:24.811Z,6.73
2019-05-02T18:21:58.234Z,6.53
2019-05-02T18:24:24.565Z,7.03
2019-05-02T18:26:52.870Z,7.13
2019-05-02T18:31:55.221Z,7.23
2019-05-02T18:34:25.241Z,6.67
2019-05-02T18:36:57.438Z,6.40
2019-05-02T18:39:23.444Z,6.37
2019-05-02T18:41:51.999Z,6.80
2019-05-02T18:44:21.915Z,5.77
2019-05-02T18:46:51.984Z,6.43
2019-05-02T18:49:23.295Z,5.13
2019-05-02T18:51:53.892Z,6.67
2019-05-02T18:54:21.824Z,6.03
2019-05-02T18:56:55.051Z,5.50
2019-05-02T18:59:22.495Z,5.40
2019-05-02T19:01:52.714Z,5.53
2019-05-02T19:04:21.968Z,5.33
2019-05-02T19:06:51.819Z,5.67
2019-05-02T19:09:24.985Z,5.53
2019-05-02T19:11:50.074Z,6.03
2019-05-02T19:14:22.225Z,6.27
2019-05-02T19:16:48.438Z,5.70
2019-05-02T19:19:16.717Z,6.67
2019-05-02T19:21:45.021Z,6.00
2019-05-02T19:24:13.306Z,6.70
2019-05-02T19:26:49.039Z,8.17
2019-05-02T19:32:06.453Z,7.40
2019-05-02T19:34:34.776Z,7.87
2019-05-02T19:37:04.488Z,8.53
2019-05-02T19:42:17.170Z,8.03
2019-05-02T19:44:42.629Z,9.00
2019-05-02T19:47:15.687Z,8.10
2019-05-02T19:49:42.517Z,7.57
2019-05-02T19:52:12.691Z,7.43
2019-05-02T19:54:41.692Z,7.43
2019-05-02T19:57:11.879Z,7.80
2019-05-02T19:59:43.054Z,8.03
2019-05-02T20:02:11.912Z,8.07
2019-05-02T20:04:42.608Z,6.67
2019-05-02T20:07:12.369Z,7.63
2019-05-02T20:09:43.645Z,7.67
2019-05-02T20:12:15.516Z,8.07
2019-05-02T20:14:43.586Z,8.43
2019-05-02T20:22:47.064Z,8.17
2019-05-02T20:25:15.373Z,7.67
2019-05-02T20:27:43.672Z,8.27
2019-05-02T20:30:12.142Z,8.40
2019-05-02T20:32:40.459Z,8.30
2019-05-02T20:35:08.881Z,8.27
2019-05-02T20:37:37.288Z,8.20
2019-05-02T20:40:05.776Z,8.07
2019-05-02T20:42:34.065Z,8.13
2019-05-02T20:45:02.478Z,7.77
2019-05-02T20:47:30.874Z,8.33
2019-05-02T20:49:59.188Z,9.03
2019-05-02T20:52:46.481Z,8.03
2019-05-02T20:55:14.842Z,9.63
2019-05-02T20:57:43.145Z,9.30
2019-05-02T21:03:11.819Z,9.50
2019-05-02T21:11:17.674Z,9.07
2019-05-02T21:13:45.977Z,9.87
2019-05-02T21:16:14.282Z,10.10
2019-05-02T21:18:42.574Z,9.57
2019-05-02T21:21:12.693Z,10.00
2019-05-02T21:23:47.135Z,9.60
2019-05-02T21:26:11.064Z,10.13
2019-05-02T21:28:39.477Z,10.63
2019-05-02T21:31:07.772Z,10.80
2019-05-02T21:33:55.030Z,11.67
2019-05-02T21:36:23.357Z,10.10
2019-05-02T21:41:35.422Z,10.00
2019-05-02T21:44:03.729Z,10.73
2019-05-02T21:46:32.040Z,10.40
2019-05-02T21:49:00.353Z,10.50
2019-05-02T21:51:47.652Z,10.50
2019-05-02T21:54:34.825Z,10.40
2019-05-02T21:57:09.129Z,11.37
2019-05-02T21:59:37.449Z,11.47
2019-05-02T22:04:55.853Z,10.20
2019-05-02T22:07:24.151Z,9.70
2019-05-02T22:09:52.531Z,9.33
2019-05-02T22:12:22.506Z,9.27
2019-05-02T22:14:52.660Z,9.80
2019-05-02T22:17:21.546Z,9.53
2019-05-02T22:19:52.387Z,10.87
2019-05-02T22:22:22.696Z,10.30
2019-05-02T22:24:52.674Z,10.43
2019-05-02T22:27:21.772Z,9.77
2019-05-02T22:29:52.019Z,11.37
2019-05-02T22:32:22.519Z,11.50
2019-05-02T22:34:52.749Z,12.50
2019-05-02T22:42:44.385Z,10.57
2019-05-02T22:48:07.054Z,10.30
2019-05-02T22:50:35.346Z,10.37
2019-05-02T22:53:03.646Z,10.73
2019-05-02T22:55:32.046Z,10.67
2019-05-02T22:58:02.252Z,11.00
2019-05-02T23:00:31.913Z,10.73
2019-05-02T23:03:01.872Z,9.67
2019-05-02T23:05:32.101Z,9.63
2019-05-02T23:08:02.169Z,9.23
2019-05-02T23:10:30.149Z,9.57
2019-05-02T23:12:58.466Z,9.43
2019-05-02T23:15:26.772Z,9.20
2019-05-02T23:17:55.069Z,8.60
2019-05-02T23:20:24.443Z,9.60
2019-05-02T23:22:53.565Z,10.03
2019-05-02T23:25:29.665Z,10.53
2019-05-02T23:28:05.429Z,13.47
2019-05-02T23:33:08.070Z,11.03
2019-05-02T23:35:36.445Z,10.53
2019-05-02T23:38:04.771Z,10.60
2019-05-02T23:43:21.871Z,11.27
2019-05-02T23:45:51.669Z,13.87
2019-05-02T23:48:22.091Z,14.50
2019-05-02T23:50:52.092Z,14.87
2019-05-02T23:53:22.064Z,16.60
2019-05-02T23:55:50.462Z,15.67
2019-05-02T23:58:18.790Z,16.30
